KPSK/PSK METAR and TAF weather

Enter ICAO airport designator
Station Type Date Time Source
KPSK METAR 2019/08/26 06:55 UTC NOAA

KPSK 260655Z AUTO 00000KT 10SM CLR 11/11 A3019 RMK AO2 T01100107


Station Type Date Time Source
KPSK Decoded METAR 2019/08/26 06:55 UTC NOAA

Station name not available
Aug 26, 2019 - 02:55 AM EDT / 2019.08.26 0655 UTC
Wind: Calm:0
Visibility: 10 mile(s):0
Sky conditions: clear
Temperature: 51.8 F (11.0 C)
Dew Point: 51.3 F (10.7 C)
Relative Humidity: 98%
Pressure (altimeter): 30.19 in. Hg (1022 hPa)
ob: KPSK 260655Z AUTO 00000KT 10SM CLR 11/11 A3019 RMK AO2 T01100107
cycle: 7

Station Type Date Time Source
KPSK TAF UTC NOAA

Error!

Example: see airport list